sensor_id;sensor_type;location;lat;lon;timestamp;pressure;altitude;pressure_sealevel;temperature;humidity
21574;BME280;10948;48.706;9.258;2023-01-30T00:02:24;98481.75;;;-2.14;100.00
21574;BME280;10948;48.706;9.258;2023-01-30T00:04:49;98474.09;;;-2.08;100.00
21574;BME280;10948;48.706;9.258;2023-01-30T00:07:14;98479.13;;;-2.47;100.00
21574;BME280;10948;48.706;9.258;2023-01-30T00:09:40;98480.88;;;-2.37;100.00
21574;BME280;10948;48.706;9.258;2023-01-30T00:12:05;98477.44;;;-2.51;100.00
21574;BME280;10948;48.706;9.258;2023-01-30T00:14:30;98468.06;;;-2.67;100.00
21574;BME280;10948;48.706;9.258;2023-01-30T00:16:55;98458.72;;;-2.75;100.00
21574;BME280;10948;48.706;9.258;2023-01-30T00:19:21;98454.53;;;-2.55;100.00
21574;BME280;10948;48.706;9.258;2023-01-30T00:21:46;98445.19;;;-2.58;100.00
21574;BME280;10948;48.706;9.258;2023-01-30T00:24:11;98452.81;;;-2.62;100.00
21574;BME280;10948;48.706;9.258;2023-01-30T00:26:36;98436.72;;;-2.27;100.00
21574;BME280;10948;48.706;9.258;2023-01-30T00:29:02;98426.50;;;-2.54;100.00
21574;BME280;10948;48.706;9.258;2023-01-30T00:31:27;98425.66;;;-2.35;100.00
21574;BME280;10948;48.706;9.258;2023-01-30T00:33:52;98427.38;;;-2.26;100.00
21574;BME280;10948;48.706;9.258;2023-01-30T00:36:17;98428.22;;;-2.38;100.00
21574;BME280;10948;48.706;9.258;2023-01-30T00:38:42;98432.47;;;-2.38;100.00
21574;BME280;10948;48.706;9.258;2023-01-30T00:41:08;98436.69;;;-2.57;100.00
21574;BME280;10948;48.706;9.258;2023-01-30T00:43:34;98429.06;;;-2.31;100.00
21574;BME280;10948;48.706;9.258;2023-01-30T00:46:28;98418.84;;;-2.54;100.00
21574;BME280;10948;48.706;9.258;2023-01-30T00:49:13;98418.81;;;-2.73;100.00
21574;BME280;10948;48.706;9.258;2023-01-30T00:51:38;98413.69;;;-2.88;100.00
21574;BME280;10948;48.706;9.258;2023-01-30T00:54:03;98429.88;;;-2.64;100.00
21574;BME280;10948;48.706;9.258;2023-01-30T00:56:29;98430.69;;;-2.78;100.00
21574;BME280;10948;48.706;9.258;2023-01-30T00:58:54;98427.31;;;-2.76;100.00
21574;BME280;10948;48.706;9.258;2023-01-30T01:01:19;98434.09;;;-2.73;100.00
21574;BME280;10948;48.706;9.258;2023-01-30T01:03:44;98438.31;;;-2.74;100.00
21574;BME280;10948;48.706;9.258;2023-01-30T01:06:09;98445.97;;;-2.68;100.00
21574;BME280;10948;48.706;9.258;2023-01-30T01:08:35;98445.16;;;-2.55;100.00
21574;BME280;10948;48.706;9.258;2023-01-30T01:11:00;98459.63;;;-2.40;100.00
21574;BME280;10948;48.706;9.258;2023-01-30T01:13:25;98463.75;;;-2.80;100.00
21574;BME280;10948;48.706;9.258;2023-01-30T01:15:50;98474.00;;;-2.71;100.00
21574;BME280;10948;48.706;9.258;2023-01-30T01:18:16;98478.28;;;-2.59;100.00
21574;BME280;10948;48.706;9.258;2023-01-30T01:20:41;98477.47;;;-2.45;100.00
21574;BME280;10948;48.706;9.258;2023-01-30T01:23:08;98485.97;;;-2.22;100.00
21574;BME280;10948;48.706;9.258;2023-01-30T01:25:34;98475.81;;;-2.04;100.00
21574;BME280;10948;48.706;9.258;2023-01-30T01:27:59;98487.72;;;-1.85;100.00
21574;BME280;10948;48.706;9.258;2023-01-30T01:30:24;98491.13;;;-1.77;100.00
21574;BME280;10948;48.706;9.258;2023-01-30T01:32:49;98501.31;;;-1.86;100.00
21574;BME280;10948;48.706;9.258;2023-01-30T01:35:15;98503.00;;;-1.76;100.00
21574;BME280;10948;48.706;9.258;2023-01-30T01:37:40;98505.53;;;-1.94;100.00
21574;BME280;10948;48.706;9.258;2023-01-30T01:40:05;98512.34;;;-2.06;100.00
21574;BME280;10948;48.706;9.258;2023-01-30T01:42:49;98513.22;;;-1.85;100.00
21574;BME280;10948;48.706;9.258;2023-01-30T01:45:18;98515.75;;;-1.71;100.00
21574;BME280;10948;48.706;9.258;2023-01-30T01:47:53;98511.50;;;-1.80;100.00
21574;BME280;10948;48.706;9.258;2023-01-30T01:50:37;98503.88;;;-1.77;100.00
21574;BME280;10948;48.706;9.258;2023-01-30T01:53:04;98482.53;;;-1.28;100.00
21574;BME280;10948;48.706;9.258;2023-01-30T01:55:30;98485.97;;;-1.26;100.00
21574;BME280;10948;48.706;9.258;2023-01-30T01:58:00;98475.78;;;-1.50;100.00
21574;BME280;10948;48.706;9.258;2023-01-30T02:00:28;98487.69;;;-1.61;100.00
21574;BME280;10948;48.706;9.258;2023-01-30T02:02:55;98490.25;;;-1.65;100.00
21574;BME280;10948;48.706;9.258;2023-01-30T02:05:21;98503.03;;;-1.79;100.00
21574;BME280;10948;48.706;9.258;2023-01-30T02:10:14;98496.22;;;-1.71;100.00
21574;BME280;10948;48.706;9.258;2023-01-30T02:12:41;98508.13;;;-1.58;100.00
21574;BME280;10948;48.706;9.258;2023-01-30T02:15:07;98506.41;;;-1.80;100.00
21574;BME280;10948;48.706;9.258;2023-01-30T02:17:33;98488.56;;;-1.59;100.00
21574;BME280;10948;48.706;9.258;2023-01-30T02:22:41;98503.00;;;-1.76;100.00
21574;BME280;10948;48.706;9.258;2023-01-30T02:30:32;98493.63;;;-1.57;100.00
21574;BME280;10948;48.706;9.258;2023-01-30T02:33:07;98491.97;;;-1.91;100.00
21574;BME280;10948;48.706;9.258;2023-01-30T02:41:35;98459.66;;;-2.04;100.00
21574;BME280;10948;48.706;9.258;2023-01-30T02:43:35;98463.06;;;-2.11;100.00
21574;BME280;10948;48.706;9.258;2023-01-30T02:51:02;98478.34;;;-1.96;100.00
21574;BME280;10948;48.706;9.258;2023-01-30T02:53:32;98455.44;;;-1.98;100.00
21574;BME280;10948;48.706;9.258;2023-01-30T02:55:58;98441.81;;;-2.09;100.00
21574;BME280;10948;48.706;9.258;2023-01-30T02:58:23;98435.88;;;-2.08;100.00
21574;BME280;10948;48.706;9.258;2023-01-30T03:03:22;98477.50;;;-2.03;100.00
21574;BME280;10948;48.706;9.258;2023-01-30T03:13:28;98458.81;;;-2.26;100.00
21574;BME280;10948;48.706;9.258;2023-01-30T03:16:02;98436.69;;;-2.42;100.00
21574;BME280;10948;48.706;9.258;2023-01-30T03:18:29;98423.97;;;-2.27;100.00
21574;BME280;10948;48.706;9.258;2023-01-30T03:20:54;98411.25;;;-1.97;100.00
21574;BME280;10948;48.706;9.258;2023-01-30T03:23:19;98400.09;;;-1.48;100.00
21574;BME280;10948;48.706;9.258;2023-01-30T03:25:45;98389.00;;;-1.47;100.00
21574;BME280;10948;48.706;9.258;2023-01-30T03:28:12;98382.97;;;-1.23;100.00
21574;BME280;10948;48.706;9.258;2023-01-30T03:30:38;98365.16;;;-1.34;100.00
21574;BME280;10948;48.706;9.258;2023-01-30T03:33:03;98351.59;;;-1.43;100.00
21574;BME280;10948;48.706;9.258;2023-01-30T03:35:29;98327.78;;;-1.38;100.00
21574;BME280;10948;48.706;9.258;2023-01-30T03:37:54;98312.38;;;-1.23;100.00
21574;BME280;10948;48.706;9.258;2023-01-30T03:40:19;98318.28;;;-1.12;100.00
21574;BME280;10948;48.706;9.258;2023-01-30T03:42:44;98325.16;;;-1.29;100.00
21574;BME280;10948;48.706;9.258;2023-01-30T03:45:10;98336.19;;;-1.18;100.00
21574;BME280;10948;48.706;9.258;2023-01-30T03:47:35;98349.81;;;-1.28;100.00
21574;BME280;10948;48.706;9.258;2023-01-30T03:50:01;98355.56;;;-0.87;100.00
21574;BME280;10948;48.706;9.258;2023-01-30T03:52:26;98361.53;;;-0.85;100.00
21574;BME280;10948;48.706;9.258;2023-01-30T03:54:51;98365.75;;;-0.81;100.00
21574;BME280;10948;48.706;9.258;2023-01-30T03:57:16;98359.00;;;-0.89;100.00
21574;BME280;10948;48.706;9.258;2023-01-30T03:59:42;98357.25;;;-0.84;100.00
21574;BME280;10948;48.706;9.258;2023-01-30T04:02:07;98353.75;;;-0.71;100.00
21574;BME280;10948;48.706;9.258;2023-01-30T04:04:33;98342.69;;;-0.66;100.00
21574;BME280;10948;48.706;9.258;2023-01-30T04:06:58;98325.78;;;-0.85;100.00
21574;BME280;10948;48.706;9.258;2023-01-30T04:09:23;98327.59;;;-1.05;100.00
21574;BME280;10948;48.706;9.258;2023-01-30T04:11:49;98330.13;;;-1.03;100.00
21574;BME280;10948;48.706;9.258;2023-01-30T04:14:14;98334.34;;;-0.95;100.00
21574;BME280;10948;48.706;9.258;2023-01-30T04:16:39;98342.06;;;-1.04;100.00
21574;BME280;10948;48.706;9.258;2023-01-30T04:19:04;98351.28;;;-0.79;100.00
21574;BME280;10948;48.706;9.258;2023-01-30T04:21:30;98346.25;;;-0.94;100.00
21574;BME280;10948;48.706;9.258;2023-01-30T04:23:55;98346.16;;;-0.79;100.00
21574;BME280;10948;48.706;9.258;2023-01-30T04:26:20;98362.34;;;-0.83;100.00
21574;BME280;10948;48.706;9.258;2023-01-30T04:28:45;98355.53;;;-0.78;100.00
21574;BME280;10948;48.706;9.258;2023-01-30T04:31:10;98356.16;;;-0.49;100.00
21574;BME280;10948;48.706;9.258;2023-01-30T04:33:36;98350.31;;;-0.64;100.00
21574;BME280;10948;48.706;9.258;2023-01-30T04:36:04;98343.50;;;-0.67;100.00
21574;BME280;10948;48.706;9.258;2023-01-30T04:38:30;98344.41;;;-0.71;100.00
21574;BME280;10948;48.706;9.258;2023-01-30T04:40:56;98345.06;;;-0.46;100.00
21574;BME280;10948;48.706;9.258;2023-01-30T04:43:22;98341.81;;;-0.65;100.00
21574;BME280;10948;48.706;9.258;2023-01-30T04:45:48;98337.50;;;-0.60;100.00
21574;BME280;10948;48.706;9.258;2023-01-30T04:48:14;98340.94;;;-0.62;100.00
21574;BME280;10948;48.706;9.258;2023-01-30T04:50:40;98340.84;;;-0.49;100.00
21574;BME280;10948;48.706;9.258;2023-01-30T04:53:05;98345.84;;;-0.40;100.00
21574;BME280;10948;48.706;9.258;2023-01-30T04:55:31;98347.72;;;-0.57;100.00
21574;BME280;10948;48.706;9.258;2023-01-30T04:57:56;98346.63;;;-0.30;100.00
21574;BME280;10948;48.706;9.258;2023-01-30T05:00:21;98359.50;;;-0.38;100.00
21574;BME280;10948;48.706;9.258;2023-01-30T05:02:47;98341.53;;;-0.30;100.00
21574;BME280;10948;48.706;9.258;2023-01-30T05:05:12;98349.28;;;-0.38;100.00
21574;BME280;10948;48.706;9.258;2023-01-30T05:07:37;98340.53;;;-0.13;100.00
21574;BME280;10948;48.706;9.258;2023-01-30T05:10:03;98327.81;;;-0.20;100.00
21574;BME280;10948;48.706;9.258;2023-01-30T05:12:28;98328.59;;;-0.11;100.00
21574;BME280;10948;48.706;9.258;2023-01-30T05:14:54;98328.41;;;0.07;100.00
21574;BME280;10948;48.706;9.258;2023-01-30T05:17:20;98313.38;;;-0.26;100.00
21574;BME280;10948;48.706;9.258;2023-01-30T05:19:45;98318.38;;;-0.14;100.00
21574;BME280;10948;48.706;9.258;2023-01-30T05:22:10;98307.34;;;-0.19;100.00
21574;BME280;10948;48.706;9.258;2023-01-30T05:24:36;98308.19;;;-0.17;100.00
21574;BME280;10948;48.706;9.258;2023-01-30T05:27:01;98297.03;;;-0.08;100.00
21574;BME280;10948;48.706;9.258;2023-01-30T05:29:26;98287.72;;;-0.17;100.00
21574;BME280;10948;48.706;9.258;2023-01-30T05:31:52;98279.13;;;-0.12;100.00
21574;BME280;10948;48.706;9.258;2023-01-30T05:34:17;98276.63;;;-0.17;100.00
21574;BME280;10948;48.706;9.258;2023-01-30T05:36:42;98280.56;;;0.15;100.00
21574;BME280;10948;48.706;9.258;2023-01-30T05:39:07;98281.59;;;-0.01;100.00
21574;BME280;10948;48.706;9.258;2023-01-30T05:41:32;98275.47;;;0.15;100.00
21574;BME280;10948;48.706;9.258;2023-01-30T05:43:58;98284.94;;;0.05;100.00
21574;BME280;10948;48.706;9.258;2023-01-30T05:46:23;98274.47;;;0.25;100.00
21574;BME280;10948;48.706;9.258;2023-01-30T05:48:48;98263.50;;;0.17;100.00
21574;BME280;10948;48.706;9.258;2023-01-30T05:51:24;98284.03;;;0.11;100.00
21574;BME280;10948;48.706;9.258;2023-01-30T05:53:49;98283.25;;;0.04;100.00
21574;BME280;10948;48.706;9.258;2023-01-30T05:56:15;98282.16;;;0.25;100.00
21574;BME280;10948;48.706;9.258;2023-01-30T05:58:40;98283.09;;;0.16;100.00
21574;BME280;10948;48.706;9.258;2023-01-30T06:01:06;98290.69;;;0.27;100.00
21574;BME280;10948;48.706;9.258;2023-01-30T06:03:33;98275.34;;;0.24;100.00
21574;BME280;10948;48.706;9.258;2023-01-30T06:06:02;98289.88;;;0.20;100.00
21574;BME280;10948;48.706;9.258;2023-01-30T06:08:28;98288.00;;;0.34;100.00
21574;BME280;10948;48.706;9.258;2023-01-30T06:10:53;98291.50;;;0.27;100.00
21574;BME280;10948;48.706;9.258;2023-01-30T06:13:18;98284.69;;;0.26;100.00
21574;BME280;10948;48.706;9.258;2023-01-30T06:15:43;98272.84;;;0.21;100.00
21574;BME280;10948;48.706;9.258;2023-01-30T06:18:09;98274.41;;;0.32;100.00
21574;BME280;10948;48.706;9.258;2023-01-30T06:20:34;98280.56;;;0.15;100.00
21574;BME280;10948;48.706;9.258;2023-01-30T06:22:59;98277.28;;;0.05;100.00
21574;BME280;10948;48.706;9.258;2023-01-30T06:25:24;98284.69;;;0.26;100.00
21574;BME280;10948;48.706;9.258;2023-01-30T06:27:51;98278.78;;;0.23;100.00
21574;BME280;10948;48.706;9.258;2023-01-30T06:30:16;98282.06;;;0.32;100.00
21574;BME280;10948;48.706;9.258;2023-01-30T06:32:41;98275.22;;;0.33;100.00
21574;BME280;10948;48.706;9.258;2023-01-30T06:35:07;98274.34;;;0.37;100.00
21574;BME280;10948;48.706;9.258;2023-01-30T06:37:32;98270.22;;;0.27;100.00
21574;BME280;10948;48.706;9.258;2023-01-30T06:39:57;98269.53;;;0.08;100.00
21574;BME280;10948;48.706;9.258;2023-01-30T06:42:22;98263.84;;;-0.13;100.00
21574;BME280;10948;48.706;9.258;2023-01-30T06:44:48;98250.78;;;0.09;100.00
21574;BME280;10948;48.706;9.258;2023-01-30T06:47:13;98246.41;;;0.19;100.00
21574;BME280;10948;48.706;9.258;2023-01-30T06:49:38;98247.50;;;0.00;100.00
21574;BME280;10948;48.706;9.258;2023-01-30T06:52:03;98239.59;;;0.18;100.00
21574;BME280;10948;48.706;9.258;2023-01-30T06:54:28;98254.06;;;0.20;100.00
21574;BME280;10948;48.706;9.258;2023-01-30T06:56:54;98247.13;;;0.30;100.00
21574;BME280;10948;48.706;9.258;2023-01-30T06:59:19;98242.22;;;0.12;100.00
21574;BME280;10948;48.706;9.258;2023-01-30T07:01:45;98237.75;;;0.29;100.00
21574;BME280;10948;48.706;9.258;2023-01-30T07:04:11;98232.78;;;0.17;100.00
21574;BME280;10948;48.706;9.258;2023-01-30T07:06:38;98230.81;;;0.40;100.00
21574;BME280;10948;48.706;9.258;2023-01-30T07:09:03;98226.66;;;0.28;100.00
21574;BME280;10948;48.706;9.258;2023-01-30T07:11:28;98244.38;;;0.46;100.00
21574;BME280;10948;48.706;9.258;2023-01-30T07:13:55;98263.22;;;0.38;100.00
21574;BME280;10948;48.706;9.258;2023-01-30T07:16:20;98256.22;;;0.52;100.00
21574;BME280;10948;48.706;9.258;2023-01-30T07:18:47;98267.34;;;0.49;100.00
21574;BME280;10948;48.706;9.258;2023-01-30T07:21:13;98269.75;;;0.61;100.00
21574;BME280;10948;48.706;9.258;2023-01-30T07:23:38;98272.88;;;0.83;100.00
21574;BME280;10948;48.706;9.258;2023-01-30T07:26:03;98277.28;;;0.72;100.00
21574;BME280;10948;48.706;9.258;2023-01-30T07:28:29;98289.44;;;0.58;100.00
21574;BME280;10948;48.706;9.258;2023-01-30T07:30:59;98281.75;;;0.58;100.00
21574;BME280;10948;48.706;9.258;2023-01-30T07:33:24;98285.75;;;0.77;100.00
21574;BME280;10948;48.706;9.258;2023-01-30T07:35:49;98291.91;;;0.62;100.00
21574;BME280;10948;48.706;9.258;2023-01-30T07:38:14;98294.56;;;0.56;100.00
21574;BME280;10948;48.706;9.258;2023-01-30T07:40:39;98286.56;;;0.82;100.00
21574;BME280;10948;48.706;9.258;2023-01-30T07:43:06;98290.00;;;0.81;100.00
21574;BME280;10948;48.706;9.258;2023-01-30T07:45:35;98304.28;;;0.95;100.00
21574;BME280;10948;48.706;9.258;2023-01-30T07:48:01;98293.22;;;0.92;100.00
21574;BME280;10948;48.706;9.258;2023-01-30T07:50:27;98298.69;;;0.68;100.00
21574;BME280;10948;48.706;9.258;2023-01-30T07:52:52;98290.88;;;0.78;100.00
21574;BME280;10948;48.706;9.258;2023-01-30T07:55:17;98301.84;;;0.88;100.00
21574;BME280;10948;48.706;9.258;2023-01-30T07:57:42;98302.59;;;0.94;100.00
21574;BME280;10948;48.706;9.258;2023-01-30T08:00:08;98299.06;;;1.04;100.00
21574;BME280;10948;48.706;9.258;2023-01-30T08:02:35;98289.91;;;0.87;100.00
21574;BME280;10948;48.706;9.258;2023-01-30T08:05:00;98287.28;;;0.91;100.00
21574;BME280;10948;48.706;9.258;2023-01-30T08:07:25;98281.44;;;0.82;100.00
21574;BME280;10948;48.706;9.258;2023-01-30T08:09:50;98273.38;;;1.07;100.00
21574;BME280;10948;48.706;9.258;2023-01-30T08:12:16;98266.41;;;1.15;100.00
21574;BME280;10948;48.706;9.258;2023-01-30T08:14:41;98278.53;;;1.59;100.00
21574;BME280;10948;48.706;9.258;2023-01-30T08:17:06;98284.94;;;1.34;100.00
21574;BME280;10948;48.706;9.258;2023-01-30T08:19:32;98285.94;;;1.24;100.00
21574;BME280;10948;48.706;9.258;2023-01-30T08:21:57;98312.09;;;1.47;100.00
21574;BME280;10948;48.706;9.258;2023-01-30T08:24:23;98319.69;;;1.53;100.00
21574;BME280;10948;48.706;9.258;2023-01-30T08:26:48;98309.69;;;1.35;100.00
21574;BME280;10948;48.706;9.258;2023-01-30T08:29:13;98293.38;;;1.39;100.00
21574;BME280;10948;48.706;9.258;2023-01-30T08:31:38;98284.78;;;1.44;100.00
21574;BME280;10948;48.706;9.258;2023-01-30T08:34:04;98297.50;;;1.49;100.00
21574;BME280;10948;48.706;9.258;2023-01-30T08:36:29;98296.81;;;1.38;100.00
21574;BME280;10948;48.706;9.258;2023-01-30T08:38:54;98286.66;;;1.33;100.00
21574;BME280;10948;48.706;9.258;2023-01-30T08:41:20;98278.06;;;1.34;100.00
21574;BME280;10948;48.706;9.258;2023-01-30T08:43:45;98277.00;;;1.49;100.00
21574;BME280;10948;48.706;9.258;2023-01-30T08:46:10;98296.00;;;1.87;100.00
21574;BME280;10948;48.706;9.258;2023-01-30T08:48:35;98285.50;;;1.99;100.00
21574;BME280;10948;48.706;9.258;2023-01-30T08:51:04;98283.06;;;1.92;100.00
21574;BME280;10948;48.706;9.258;2023-01-30T08:53:29;98277.13;;;1.90;100.00
21574;BME280;10948;48.706;9.258;2023-01-30T08:55:54;98277.81;;;2.01;100.00
21574;BME280;10948;48.706;9.258;2023-01-30T08:58:20;98260.00;;;2.36;100.00
21574;BME280;10948;48.706;9.258;2023-01-30T09:00:45;98254.75;;;2.42;100.00
21574;BME280;10948;48.706;9.258;2023-01-30T09:03:11;98258.13;;;2.44;100.00
21574;BME280;10948;48.706;9.258;2023-01-30T09:05:37;98244.22;;;2.92;100.00
21574;BME280;10948;48.706;9.258;2023-01-30T09:08:02;98240.22;;;2.80;100.00
21574;BME280;10948;48.706;9.258;2023-01-30T09:10:27;98221.78;;;3.35;99.52
21574;BME280;10948;48.706;9.258;2023-01-30T09:12:53;98198.59;;;3.70;98.00
21574;BME280;10948;48.706;9.258;2023-01-30T09:15:18;98194.94;;;4.10;95.40
21574;BME280;10948;48.706;9.258;2023-01-30T09:17:43;98199.59;;;4.56;88.57
21574;BME280;10948;48.706;9.258;2023-01-30T09:20:09;98197.69;;;5.93;83.84
21574;BME280;10948;48.706;9.258;2023-01-30T09:22:34;98200.66;;;6.53;79.11
21574;BME280;10948;48.706;9.258;2023-01-30T09:25:00;98183.78;;;8.69;71.40
21574;BME280;10948;48.706;9.258;2023-01-30T09:27:26;98171.44;;;10.46;65.30
21574;BME280;10948;48.706;9.258;2023-01-30T09:29:51;98188.31;;;8.07;63.10
21574;BME280;10948;48.706;9.258;2023-01-30T09:32:17;98182.66;;;6.04;69.75
21574;BME280;10948;48.706;9.258;2023-01-30T09:34:42;98182.38;;;5.13;79.68
21574;BME280;10948;48.706;9.258;2023-01-30T09:37:08;98184.25;;;5.07;82.60
21574;BME280;10948;48.706;9.258;2023-01-30T09:39:35;98185.66;;;4.90;83.94
21574;BME280;10948;48.706;9.258;2023-01-30T09:47:13;98183.78;;;4.10;91.72
21574;BME280;10948;48.706;9.258;2023-01-30T09:54:44;98185.00;;;3.65;97.36
21574;BME280;10948;48.706;9.258;2023-01-30T09:57:11;98183.00;;;3.76;98.63
21574;BME280;10948;48.706;9.258;2023-01-30T10:05:17;98146.63;;;4.18;99.65
21574;BME280;10948;48.706;9.258;2023-01-30T10:23:09;98121.00;;;4.70;97.11
21574;BME280;10948;48.706;9.258;2023-01-30T10:25:46;98119.31;;;4.69;98.06
21574;BME280;10948;48.706;9.258;2023-01-30T10:28:21;98110.13;;;4.61;99.78
21574;BME280;10948;48.706;9.258;2023-01-30T10:30:51;98108.03;;;4.72;99.40
21574;BME280;10948;48.706;9.258;2023-01-30T10:33:23;98106.66;;;4.62;100.00
21574;BME280;10948;48.706;9.258;2023-01-30T10:35:56;98127.16;;;4.65;100.00
21574;BME280;10948;48.706;9.258;2023-01-30T10:41:06;98114.38;;;4.62;100.00
21574;BME280;10948;48.706;9.258;2023-01-30T10:43:40;98109.94;;;4.67;100.00
21574;BME280;10948;48.706;9.258;2023-01-30T10:46:15;98108.63;;;4.54;100.00
21574;BME280;10948;48.706;9.258;2023-01-30T10:51:32;98096.59;;;4.80;100.00
21574;BME280;10948;48.706;9.258;2023-01-30T10:54:23;98105.00;;;4.87;100.00
21574;BME280;10948;48.706;9.258;2023-01-30T10:57:02;98109.81;;;4.97;100.00
21574;BME280;10948;48.706;9.258;2023-01-30T11:02:56;98111.63;;;5.19;100.00
21574;BME280;10948;48.706;9.258;2023-01-30T11:04:58;98120.16;;;4.96;100.00
21574;BME280;10948;48.706;9.258;2023-01-30T11:07:25;98117.69;;;4.93;100.00
21574;BME280;10948;48.706;9.258;2023-01-30T11:09:51;98113.91;;;5.03;100.00
21574;BME280;10948;48.706;9.258;2023-01-30T11:12:16;98104.41;;;4.79;100.00
21574;BME280;10948;48.706;9.258;2023-01-30T11:14:49;98113.28;;;4.96;100.00
21574;BME280;10948;48.706;9.258;2023-01-30T11:17:16;98119.94;;;4.76;100.00
21574;BME280;10948;48.706;9.258;2023-01-30T11:19:42;98109.34;;;4.85;100.00
21574;BME280;10948;48.706;9.258;2023-01-30T11:22:10;98094.28;;;4.73;100.00
21574;BME280;10948;48.706;9.258;2023-01-30T11:24:38;98097.91;;;5.17;100.00
21574;BME280;10948;48.706;9.258;2023-01-30T11:27:11;98107.56;;;4.87;100.00
21574;BME280;10948;48.706;9.258;2023-01-30T11:29:40;98097.94;;;4.66;100.00
21574;BME280;10948;48.706;9.258;2023-01-30T11:32:11;98099.41;;;4.47;100.00
21574;BME280;10948;48.706;9.258;2023-01-30T11:34:36;98106.84;;;4.56;100.00
21574;BME280;10948;48.706;9.258;2023-01-30T11:42:43;98094.94;;;4.52;100.00
21574;BME280;10948;48.706;9.258;2023-01-30T11:45:10;98099.47;;;4.44;100.00
21574;BME280;10948;48.706;9.258;2023-01-30T11:47:35;98107.97;;;4.47;100.00
21574;BME280;10948;48.706;9.258;2023-01-30T11:50:01;98120.44;;;4.61;100.00
21574;BME280;10948;48.706;9.258;2023-01-30T11:52:30;98122.03;;;4.37;100.00
21574;BME280;10948;48.706;9.258;2023-01-30T11:54:59;98109.00;;;4.42;100.00
21574;BME280;10948;48.706;9.258;2023-01-30T11:57:29;98110.84;;;4.09;100.00
21574;BME280;10948;48.706;9.258;2023-01-30T12:00:03;98109.19;;;4.07;100.00
21574;BME280;10948;48.706;9.258;2023-01-30T12:02:32;98104.97;;;4.04;100.00
21574;BME280;10948;48.706;9.258;2023-01-30T12:05:01;98098.97;;;4.04;100.00
21574;BME280;10948;48.706;9.258;2023-01-30T12:07:35;98102.53;;;4.00;100.00
21574;BME280;10948;48.706;9.258;2023-01-30T12:10:16;98108.38;;;4.05;100.00
21574;BME280;10948;48.706;9.258;2023-01-30T12:12:51;98102.69;;;4.23;100.00
21574;BME280;10948;48.706;9.258;2023-01-30T12:15:23;98095.34;;;4.11;100.00
21574;BME280;10948;48.706;9.258;2023-01-30T12:17:55;98094.81;;;4.00;100.00
21574;BME280;10948;48.706;9.258;2023-01-30T12:25:22;98096.19;;;3.82;100.00
21574;BME280;10948;48.706;9.258;2023-01-30T12:30:35;98093.81;;;4.04;100.00
21574;BME280;10948;48.706;9.258;2023-01-30T12:33:03;98078.03;;;3.87;100.00
21574;BME280;10948;48.706;9.258;2023-01-30T12:35:40;98083.03;;;3.62;100.00
21574;BME280;10948;48.706;9.258;2023-01-30T12:41:47;98086.59;;;3.57;100.00
21574;BME280;10948;48.706;9.258;2023-01-30T12:57:01;98118.75;;;3.73;100.00
21574;BME280;10948;48.706;9.258;2023-01-30T13:02:21;98121.56;;;3.64;100.00
21574;BME280;10948;48.706;9.258;2023-01-30T13:07:21;98143.59;;;3.74;100.00
21574;BME280;10948;48.706;9.258;2023-01-30T13:09:56;98146.19;;;3.42;100.00
21574;BME280;10948;48.706;9.258;2023-01-30T13:20:25;98141.09;;;3.39;100.00
21574;BME280;10948;48.706;9.258;2023-01-30T13:23:03;98136.78;;;3.41;100.00
21574;BME280;10948;48.706;9.258;2023-01-30T13:25:36;98149.66;;;3.39;100.00
21574;BME280;10948;48.706;9.258;2023-01-30T13:28:05;98130.09;;;3.34;100.00
21574;BME280;10948;48.706;9.258;2023-01-30T13:30:33;98141.91;;;3.42;100.00
21574;BME280;10948;48.706;9.258;2023-01-30T13:33:08;98143.75;;;3.36;100.00
21574;BME280;10948;48.706;9.258;2023-01-30T13:35:39;98155.56;;;3.44;100.00
21574;BME280;10948;48.706;9.258;2023-01-30T13:38:05;98164.50;;;3.28;100.00
21574;BME280;10948;48.706;9.258;2023-01-30T13:40:33;98168.19;;;3.52;100.00
21574;BME280;10948;48.706;9.258;2023-01-30T13:45:44;98175.22;;;3.47;100.00
21574;BME280;10948;48.706;9.258;2023-01-30T14:00:38;98190.44;;;3.54;100.00
21574;BME280;10948;48.706;9.258;2023-01-30T14:08:17;98207.91;;;3.42;100.00
21574;BME280;10948;48.706;9.258;2023-01-30T14:10:44;98223.84;;;3.56;100.00
21574;BME280;10948;48.706;9.258;2023-01-30T14:13:12;98211.91;;;3.52;100.00
21574;BME280;10948;48.706;9.258;2023-01-30T14:15:39;98207.19;;;3.35;100.00
21574;BME280;10948;48.706;9.258;2023-01-30T14:18:28;98214.38;;;3.23;100.00
21574;BME280;10948;48.706;9.258;2023-01-30T14:20:52;98209.97;;;3.28;100.00
21574;BME280;10948;48.706;9.258;2023-01-30T14:23:35;98212.47;;;3.31;100.00
21574;BME280;10948;48.706;9.258;2023-01-30T14:26:01;98220.63;;;3.48;100.00
21574;BME280;10948;48.706;9.258;2023-01-30T14:31:01;98223.03;;;3.19;100.00
21574;BME280;10948;48.706;9.258;2023-01-30T14:38:27;98233.25;;;3.22;100.00
21574;BME280;10948;48.706;9.258;2023-01-30T14:56:32;98258.16;;;3.20;100.00
21574;BME280;10948;48.706;9.258;2023-01-30T14:59:02;98267.84;;;3.09;100.00
21574;BME280;10948;48.706;9.258;2023-01-30T15:04:13;98253.59;;;3.31;100.00
21574;BME280;10948;48.706;9.258;2023-01-30T15:06:40;98263.47;;;3.49;100.00
21574;BME280;10948;48.706;9.258;2023-01-30T15:09:05;98256.63;;;3.48;100.00
21574;BME280;10948;48.706;9.258;2023-01-30T15:11:31;98262.84;;;3.38;100.00
21574;BME280;10948;48.706;9.258;2023-01-30T15:14:10;98261.56;;;3.20;100.00
21574;BME280;10948;48.706;9.258;2023-01-30T15:27:18;98279.50;;;3.60;100.00
21574;BME280;10948;48.706;9.258;2023-01-30T15:32:20;98294.94;;;3.60;100.00
21574;BME280;10948;48.706;9.258;2023-01-30T15:43:28;98309.09;;;3.41;100.00
21574;BME280;10948;48.706;9.258;2023-01-30T15:50:24;98308.50;;;3.65;100.00
21574;BME280;10948;48.706;9.258;2023-01-30T15:52:50;98322.63;;;3.49;100.00
21574;BME280;10948;48.706;9.258;2023-01-30T15:55:30;98319.31;;;3.44;100.00
21574;BME280;10948;48.706;9.258;2023-01-30T15:58:13;98316.06;;;3.36;100.00
21574;BME280;10948;48.706;9.258;2023-01-30T16:00:39;98317.19;;;3.24;100.00
21574;BME280;10948;48.706;9.258;2023-01-30T16:03:10;98313.84;;;3.21;100.00
21574;BME280;10948;48.706;9.258;2023-01-30T16:05:35;98320.69;;;3.20;100.00